sensor_id;sensor_type;location;lat;lon;timestamp;temperature;humidity
21275;DHT22;36472;52.170;20.884;2023-08-17T00:00:07;38.50;50.30
21275;DHT22;36472;52.170;20.884;2023-08-17T00:02:58;38.60;50.10
21275;DHT22;36472;52.170;20.884;2023-08-17T00:05:28;38.60;50.30
21275;DHT22;36472;52.170;20.884;2023-08-17T00:08:00;38.60;50.70
21275;DHT22;36472;52.170;20.884;2023-08-17T00:10:29;38.60;50.60
21275;DHT22;36472;52.170;20.884;2023-08-17T00:12:58;38.60;50.40
21275;DHT22;36472;52.170;20.884;2023-08-17T00:15:27;38.60;50.50
21275;DHT22;36472;52.170;20.884;2023-08-17T00:17:56;38.60;50.70
21275;DHT22;36472;52.170;20.884;2023-08-17T00:20:25;38.60;50.40
21275;DHT22;36472;52.170;20.884;2023-08-17T00:22:54;38.60;50.50
21275;DHT22;36472;52.170;20.884;2023-08-17T00:25:24;38.60;50.40
21275;DHT22;36472;52.170;20.884;2023-08-17T00:27:54;38.60;50.40
21275;DHT22;36472;52.170;20.884;2023-08-17T00:30:22;38.60;50.70
21275;DHT22;36472;52.170;20.884;2023-08-17T00:32:52;38.60;50.70
21275;DHT22;36472;52.170;20.884;2023-08-17T00:35:21;38.50;50.50
21275;DHT22;36472;52.170;20.884;2023-08-17T00:37:50;38.60;50.50
21275;DHT22;36472;52.170;20.884;2023-08-17T00:40:19;38.50;50.50
21275;DHT22;36472;52.170;20.884;2023-08-17T00:42:49;38.50;50.60
21275;DHT22;36472;52.170;20.884;2023-08-17T00:45:22;38.50;50.50
21275;DHT22;36472;52.170;20.884;2023-08-17T00:47:55;38.50;50.60
21275;DHT22;36472;52.170;20.884;2023-08-17T00:50:26;38.50;50.70
21275;DHT22;36472;52.170;20.884;2023-08-17T00:57:30;38.50;50.60
21275;DHT22;36472;52.170;20.884;2023-08-17T01:00:03;38.50;50.70
21275;DHT22;36472;52.170;20.884;2023-08-17T01:02:34;38.40;50.90
21275;DHT22;36472;52.170;20.884;2023-08-17T01:05:04;38.40;51.00
21275;DHT22;36472;52.170;20.884;2023-08-17T01:07:34;38.40;51.10
21275;DHT22;36472;52.170;20.884;2023-08-17T01:10:06;38.30;51.80
21275;DHT22;36472;52.170;20.884;2023-08-17T01:12:41;38.30;51.20
21275;DHT22;36472;52.170;20.884;2023-08-17T01:15:19;38.30;51.30
21275;DHT22;36472;52.170;20.884;2023-08-17T01:17:58;38.20;51.10
21275;DHT22;36472;52.170;20.884;2023-08-17T01:20:33;38.20;51.20
21275;DHT22;36472;52.170;20.884;2023-08-17T01:23:05;38.20;51.30
21275;DHT22;36472;52.170;20.884;2023-08-17T01:25:34;38.20;51.20
21275;DHT22;36472;52.170;20.884;2023-08-17T01:28:05;38.30;51.40
21275;DHT22;36472;52.170;20.884;2023-08-17T01:30:39;38.30;51.30
21275;DHT22;36472;52.170;20.884;2023-08-17T01:33:18;38.30;51.30
21275;DHT22;36472;52.170;20.884;2023-08-17T01:36:04;38.30;51.40
21275;DHT22;36472;52.170;20.884;2023-08-17T01:38:42;38.30;51.30
21275;DHT22;36472;52.170;20.884;2023-08-17T01:41:14;38.20;51.20
21275;DHT22;36472;52.170;20.884;2023-08-17T01:43:45;38.20;51.20
21275;DHT22;36472;52.170;20.884;2023-08-17T01:46:16;38.20;51.20
21275;DHT22;36472;52.170;20.884;2023-08-17T01:48:47;38.20;51.40
21275;DHT22;36472;52.170;20.884;2023-08-17T01:51:18;38.20;51.50
21275;DHT22;36472;52.170;20.884;2023-08-17T01:53:50;38.20;51.60
21275;DHT22;36472;52.170;20.884;2023-08-17T01:56:19;38.20;51.70
21275;DHT22;36472;52.170;20.884;2023-08-17T01:58:48;38.20;51.60
21275;DHT22;36472;52.170;20.884;2023-08-17T02:01:17;38.20;51.60
21275;DHT22;36472;52.170;20.884;2023-08-17T02:03:46;38.20;51.60
21275;DHT22;36472;52.170;20.884;2023-08-17T02:06:15;38.20;51.60
21275;DHT22;36472;52.170;20.884;2023-08-17T02:08:45;38.20;51.50
21275;DHT22;36472;52.170;20.884;2023-08-17T02:11:16;38.20;51.50
21275;DHT22;36472;52.170;20.884;2023-08-17T02:13:45;38.20;51.60
21275;DHT22;36472;52.170;20.884;2023-08-17T02:16:14;38.20;51.50
21275;DHT22;36472;52.170;20.884;2023-08-17T02:18:43;38.10;52.10
21275;DHT22;36472;52.170;20.884;2023-08-17T02:21:12;38.10;51.40
21275;DHT22;36472;52.170;20.884;2023-08-17T02:23:41;38.10;51.40
21275;DHT22;36472;52.170;20.884;2023-08-17T02:26:11;38.10;51.30
21275;DHT22;36472;52.170;20.884;2023-08-17T02:28:41;38.10;51.40
21275;DHT22;36472;52.170;20.884;2023-08-17T02:31:10;38.10;51.50
21275;DHT22;36472;52.170;20.884;2023-08-17T02:33:40;38.10;51.50
21275;DHT22;36472;52.170;20.884;2023-08-17T02:36:09;38.10;51.50
21275;DHT22;36472;52.170;20.884;2023-08-17T02:38:38;38.10;52.40
21275;DHT22;36472;52.170;20.884;2023-08-17T02:41:07;38.10;51.60
21275;DHT22;36472;52.170;20.884;2023-08-17T02:43:36;38.10;51.50
21275;DHT22;36472;52.170;20.884;2023-08-17T02:46:06;38.10;51.50
21275;DHT22;36472;52.170;20.884;2023-08-17T02:48:37;38.10;51.70
21275;DHT22;36472;52.170;20.884;2023-08-17T02:51:06;38.10;51.50
21275;DHT22;36472;52.170;20.884;2023-08-17T02:53:35;38.10;51.40
21275;DHT22;36472;52.170;20.884;2023-08-17T02:56:04;38.10;51.30
21275;DHT22;36472;52.170;20.884;2023-08-17T02:58:33;38.10;51.40
21275;DHT22;36472;52.170;20.884;2023-08-17T03:01:02;38.10;51.50
21275;DHT22;36472;52.170;20.884;2023-08-17T03:03:33;38.10;51.60
21275;DHT22;36472;52.170;20.884;2023-08-17T03:06:03;38.10;51.70
21275;DHT22;36472;52.170;20.884;2023-08-17T03:08:33;38.10;51.70
21275;DHT22;36472;52.170;20.884;2023-08-17T03:11:01;38.00;51.60
21275;DHT22;36472;52.170;20.884;2023-08-17T03:13:31;38.10;51.70
21275;DHT22;36472;52.170;20.884;2023-08-17T03:16:00;38.00;51.70
21275;DHT22;36472;52.170;20.884;2023-08-17T03:18:30;38.10;51.70
21275;DHT22;36472;52.170;20.884;2023-08-17T03:21:01;38.10;51.70
21275;DHT22;36472;52.170;20.884;2023-08-17T03:23:31;38.00;51.40
21275;DHT22;36472;52.170;20.884;2023-08-17T03:26:02;38.10;51.50
21275;DHT22;36472;52.170;20.884;2023-08-17T03:28:32;38.00;51.40
21275;DHT22;36472;52.170;20.884;2023-08-17T03:31:02;38.00;51.40
21275;DHT22;36472;52.170;20.884;2023-08-17T03:33:31;38.00;51.50
21275;DHT22;36472;52.170;20.884;2023-08-17T03:36:02;38.00;51.40
21275;DHT22;36472;52.170;20.884;2023-08-17T03:38:32;38.00;51.30
21275;DHT22;36472;52.170;20.884;2023-08-17T03:41:00;38.00;51.20
21275;DHT22;36472;52.170;20.884;2023-08-17T03:43:31;38.00;51.20
21275;DHT22;36472;52.170;20.884;2023-08-17T03:46:03;38.00;51.30
21275;DHT22;36472;52.170;20.884;2023-08-17T03:48:34;38.00;51.20
21275;DHT22;36472;52.170;20.884;2023-08-17T03:51:07;38.00;51.10
21275;DHT22;36472;52.170;20.884;2023-08-17T03:53:36;38.00;51.30
21275;DHT22;36472;52.170;20.884;2023-08-17T03:56:05;38.00;51.30
21275;DHT22;36472;52.170;20.884;2023-08-17T03:58:34;38.00;51.40
21275;DHT22;36472;52.170;20.884;2023-08-17T04:01:04;38.00;51.30
21275;DHT22;36472;52.170;20.884;2023-08-17T04:03:34;38.00;51.20
21275;DHT22;36472;52.170;20.884;2023-08-17T04:06:07;38.00;51.10
21275;DHT22;36472;52.170;20.884;2023-08-17T04:08:38;38.00;51.30
21275;DHT22;36472;52.170;20.884;2023-08-17T04:11:07;38.00;51.30
21275;DHT22;36472;52.170;20.884;2023-08-17T04:13:36;38.00;52.00
21275;DHT22;36472;52.170;20.884;2023-08-17T04:16:05;37.90;51.20
21275;DHT22;36472;52.170;20.884;2023-08-17T04:18:34;38.00;51.20
21275;DHT22;36472;52.170;20.884;2023-08-17T04:21:03;37.90;50.90
21275;DHT22;36472;52.170;20.884;2023-08-17T04:23:34;37.90;50.70
21275;DHT22;36472;52.170;20.884;2023-08-17T04:26:03;37.90;51.00
21275;DHT22;36472;52.170;20.884;2023-08-17T04:28:32;37.90;50.30
21275;DHT22;36472;52.170;20.884;2023-08-17T04:31:01;37.90;50.10
21275;DHT22;36472;52.170;20.884;2023-08-17T04:33:35;37.90;49.90
21275;DHT22;36472;52.170;20.884;2023-08-17T04:36:04;37.90;49.80
21275;DHT22;36472;52.170;20.884;2023-08-17T04:38:35;37.90;50.10
21275;DHT22;36472;52.170;20.884;2023-08-17T04:41:04;37.90;50.00
21275;DHT22;36472;52.170;20.884;2023-08-17T04:43:33;37.90;49.80
21275;DHT22;36472;52.170;20.884;2023-08-17T04:46:03;38.00;49.70
21275;DHT22;36472;52.170;20.884;2023-08-17T04:48:32;37.90;49.40
21275;DHT22;36472;52.170;20.884;2023-08-17T04:51:01;38.00;49.60
21275;DHT22;36472;52.170;20.884;2023-08-17T04:53:31;38.00;49.50
21275;DHT22;36472;52.170;20.884;2023-08-17T04:56:02;38.00;49.40
21275;DHT22;36472;52.170;20.884;2023-08-17T04:58:32;38.00;49.30
21275;DHT22;36472;52.170;20.884;2023-08-17T05:01:01;38.00;49.20
21275;DHT22;36472;52.170;20.884;2023-08-17T05:03:31;38.00;49.10
21275;DHT22;36472;52.170;20.884;2023-08-17T05:06:02;38.00;49.30
21275;DHT22;36472;52.170;20.884;2023-08-17T05:08:33;38.00;49.00
21275;DHT22;36472;52.170;20.884;2023-08-17T05:11:04;38.00;49.80
21275;DHT22;36472;52.170;20.884;2023-08-17T05:13:33;38.10;49.10
21275;DHT22;36472;52.170;20.884;2023-08-17T05:16:04;38.10;49.20
21275;DHT22;36472;52.170;20.884;2023-08-17T05:18:35;38.10;49.10
21275;DHT22;36472;52.170;20.884;2023-08-17T05:21:04;38.10;48.90
21275;DHT22;36472;52.170;20.884;2023-08-17T05:28:08;38.10;48.60
21275;DHT22;36472;52.170;20.884;2023-08-17T05:30:37;38.10;48.70
21275;DHT22;36472;52.170;20.884;2023-08-17T05:33:06;38.10;48.70
21275;DHT22;36472;52.170;20.884;2023-08-17T05:35:35;38.10;48.60
21275;DHT22;36472;52.170;20.884;2023-08-17T05:38:04;38.10;48.70
21275;DHT22;36472;52.170;20.884;2023-08-17T05:40:33;38.10;48.80
21275;DHT22;36472;52.170;20.884;2023-08-17T05:43:03;38.20;48.40
21275;DHT22;36472;52.170;20.884;2023-08-17T05:45:33;38.20;48.60
21275;DHT22;36472;52.170;20.884;2023-08-17T05:48:05;38.10;48.40
21275;DHT22;36472;52.170;20.884;2023-08-17T05:50:35;38.20;48.40
21275;DHT22;36472;52.170;20.884;2023-08-17T05:53:04;38.10;48.10
21275;DHT22;36472;52.170;20.884;2023-08-17T05:55:33;38.10;48.10
21275;DHT22;36472;52.170;20.884;2023-08-17T05:58:02;38.20;48.10
21275;DHT22;36472;52.170;20.884;2023-08-17T06:00:33;38.20;47.90
21275;DHT22;36472;52.170;20.884;2023-08-17T06:03:03;38.20;47.90
21275;DHT22;36472;52.170;20.884;2023-08-17T06:05:33;38.20;47.90
21275;DHT22;36472;52.170;20.884;2023-08-17T06:08:02;38.30;48.20
21275;DHT22;36472;52.170;20.884;2023-08-17T06:10:31;38.30;48.30
21275;DHT22;36472;52.170;20.884;2023-08-17T06:13:00;38.30;48.30
21275;DHT22;36472;52.170;20.884;2023-08-17T06:15:29;38.30;48.00
21275;DHT22;36472;52.170;20.884;2023-08-17T06:18:00;38.40;47.80
21275;DHT22;36472;52.170;20.884;2023-08-17T06:20:30;38.40;47.90
21275;DHT22;36472;52.170;20.884;2023-08-17T06:22:59;38.40;48.20
21275;DHT22;36472;52.170;20.884;2023-08-17T06:25:29;38.40;48.00
21275;DHT22;36472;52.170;20.884;2023-08-17T06:27:58;38.40;47.50
21275;DHT22;36472;52.170;20.884;2023-08-17T06:30:27;38.40;47.70
21275;DHT22;36472;52.170;20.884;2023-08-17T06:32:57;38.50;47.60
21275;DHT22;36472;52.170;20.884;2023-08-17T06:35:28;38.50;47.40
21275;DHT22;36472;52.170;20.884;2023-08-17T06:37:57;38.50;47.40
21275;DHT22;36472;52.170;20.884;2023-08-17T06:40:26;38.50;47.10
21275;DHT22;36472;52.170;20.884;2023-08-17T06:42:56;38.50;47.40
21275;DHT22;36472;52.170;20.884;2023-08-17T06:45:25;38.60;47.30
21275;DHT22;36472;52.170;20.884;2023-08-17T06:47:54;38.70;47.30
21275;DHT22;36472;52.170;20.884;2023-08-17T06:50:24;38.70;46.90
21275;DHT22;36472;52.170;20.884;2023-08-17T06:52:56;38.70;47.40
21275;DHT22;36472;52.170;20.884;2023-08-17T06:55:25;38.70;47.20
21275;DHT22;36472;52.170;20.884;2023-08-17T06:57:54;38.70;47.70
21275;DHT22;36472;52.170;20.884;2023-08-17T07:00:24;38.70;47.00
21275;DHT22;36472;52.170;20.884;2023-08-17T07:02:54;38.80;47.50
21275;DHT22;36472;52.170;20.884;2023-08-17T07:05:27;38.90;47.00
21275;DHT22;36472;52.170;20.884;2023-08-17T07:07:58;38.90;46.80
21275;DHT22;36472;52.170;20.884;2023-08-17T07:10:27;38.90;46.90
21275;DHT22;36472;52.170;20.884;2023-08-17T07:12:57;39.00;46.60
21275;DHT22;36472;52.170;20.884;2023-08-17T07:15:31;38.90;46.70
21275;DHT22;36472;52.170;20.884;2023-08-17T07:18:00;39.00;47.10
21275;DHT22;36472;52.170;20.884;2023-08-17T07:20:29;38.90;46.90
21275;DHT22;36472;52.170;20.884;2023-08-17T07:23:00;39.00;47.30
21275;DHT22;36472;52.170;20.884;2023-08-17T07:25:30;39.00;46.90
21275;DHT22;36472;52.170;20.884;2023-08-17T07:28:00;39.10;46.90
21275;DHT22;36472;52.170;20.884;2023-08-17T07:30:30;39.20;46.40
21275;DHT22;36472;52.170;20.884;2023-08-17T07:32:59;39.20;46.60
21275;DHT22;36472;52.170;20.884;2023-08-17T07:35:29;39.20;46.80
21275;DHT22;36472;52.170;20.884;2023-08-17T07:38:00;39.30;46.70
21275;DHT22;36472;52.170;20.884;2023-08-17T07:40:35;39.30;46.70
21275;DHT22;36472;52.170;20.884;2023-08-17T07:43:04;39.30;46.80
21275;DHT22;36472;52.170;20.884;2023-08-17T07:45:34;39.30;46.60
21275;DHT22;36472;52.170;20.884;2023-08-17T07:48:04;39.30;46.50
21275;DHT22;36472;52.170;20.884;2023-08-17T07:50:34;39.40;46.70
21275;DHT22;36472;52.170;20.884;2023-08-17T07:53:05;39.40;46.80
21275;DHT22;36472;52.170;20.884;2023-08-17T07:55:34;39.40;46.80
21275;DHT22;36472;52.170;20.884;2023-08-17T07:58:04;39.50;46.40
21275;DHT22;36472;52.170;20.884;2023-08-17T08:00:34;39.50;46.40
21275;DHT22;36472;52.170;20.884;2023-08-17T08:03:04;39.60;46.40
21275;DHT22;36472;52.170;20.884;2023-08-17T08:05:33;39.60;46.60
21275;DHT22;36472;52.170;20.884;2023-08-17T08:08:05;39.70;46.40
21275;DHT22;36472;52.170;20.884;2023-08-17T08:10:34;39.80;46.80
21275;DHT22;36472;52.170;20.884;2023-08-17T08:13:04;39.80;46.70
21275;DHT22;36472;52.170;20.884;2023-08-17T08:15:34;39.90;46.10
21275;DHT22;36472;52.170;20.884;2023-08-17T08:18:03;40.00;46.10
21275;DHT22;36472;52.170;20.884;2023-08-17T08:20:33;40.00;45.90
21275;DHT22;36472;52.170;20.884;2023-08-17T08:23:03;40.00;46.30
21275;DHT22;36472;52.170;20.884;2023-08-17T08:25:33;40.00;46.20
21275;DHT22;36472;52.170;20.884;2023-08-17T08:28:03;40.00;45.90
21275;DHT22;36472;52.170;20.884;2023-08-17T08:30:32;40.10;45.80
21275;DHT22;36472;52.170;20.884;2023-08-17T08:33:02;40.10;45.80
21275;DHT22;36472;52.170;20.884;2023-08-17T08:35:32;40.10;46.40
21275;DHT22;36472;52.170;20.884;2023-08-17T08:38:01;40.20;46.00
21275;DHT22;36472;52.170;20.884;2023-08-17T08:40:33;40.10;45.60
21275;DHT22;36472;52.170;20.884;2023-08-17T08:43:07;40.20;45.20
21275;DHT22;36472;52.170;20.884;2023-08-17T08:45:37;40.10;45.10
21275;DHT22;36472;52.170;20.884;2023-08-17T08:48:12;40.20;45.50
21275;DHT22;36472;52.170;20.884;2023-08-17T08:50:47;40.20;45.10
21275;DHT22;36472;52.170;20.884;2023-08-17T08:53:27;40.40;45.60
21275;DHT22;36472;52.170;20.884;2023-08-17T08:56:06;40.50;45.20
21275;DHT22;36472;52.170;20.884;2023-08-17T08:58:40;40.60;45.00
21275;DHT22;36472;52.170;20.884;2023-08-17T09:01:11;40.80;44.80
21275;DHT22;36472;52.170;20.884;2023-08-17T09:03:42;40.90;45.10
21275;DHT22;36472;52.170;20.884;2023-08-17T09:06:11;41.00;45.30
21275;DHT22;36472;52.170;20.884;2023-08-17T09:08:44;41.00;44.80
21275;DHT22;36472;52.170;20.884;2023-08-17T09:11:16;41.40;45.30
21275;DHT22;36472;52.170;20.884;2023-08-17T09:13:45;41.30;44.90
21275;DHT22;36472;52.170;20.884;2023-08-17T09:16:19;41.40;44.50
21275;DHT22;36472;52.170;20.884;2023-08-17T09:18:53;41.60;44.20
21275;DHT22;36472;52.170;20.884;2023-08-17T09:21:22;41.80;44.00
21275;DHT22;36472;52.170;20.884;2023-08-17T09:23:56;42.00;44.00
21275;DHT22;36472;52.170;20.884;2023-08-17T09:26:30;42.10;44.00
21275;DHT22;36472;52.170;20.884;2023-08-17T09:29:01;42.20;43.30
21275;DHT22;36472;52.170;20.884;2023-08-17T09:31:45;42.40;43.00
21275;DHT22;36472;52.170;20.884;2023-08-17T09:34:14;42.60;42.30
21275;DHT22;36472;52.170;20.884;2023-08-17T09:36:45;42.70;42.00
21275;DHT22;36472;52.170;20.884;2023-08-17T09:39:16;42.80;41.80
21275;DHT22;36472;52.170;20.884;2023-08-17T09:41:47;43.00;41.60
21275;DHT22;36472;52.170;20.884;2023-08-17T09:44:16;43.10;41.60
21275;DHT22;36472;52.170;20.884;2023-08-17T09:46:46;43.20;40.80
21275;DHT22;36472;52.170;20.884;2023-08-17T09:49:17;43.30;40.20
21275;DHT22;36472;52.170;20.884;2023-08-17T09:51:46;43.40;39.60
21275;DHT22;36472;52.170;20.884;2023-08-17T09:58:49;43.30;40.20
21275;DHT22;36472;52.170;20.884;2023-08-17T10:01:18;43.60;40.20
21275;DHT22;36472;52.170;20.884;2023-08-17T10:03:51;43.70;39.80
21275;DHT22;36472;52.170;20.884;2023-08-17T10:06:25;43.80;39.60
21275;DHT22;36472;52.170;20.884;2023-08-17T10:08:58;43.90;37.70
21275;DHT22;36472;52.170;20.884;2023-08-17T10:11:30;44.00;38.10
21275;DHT22;36472;52.170;20.884;2023-08-17T10:14:08;44.10;36.90
21275;DHT22;36472;52.170;20.884;2023-08-17T10:16:45;44.20;36.70
21275;DHT22;36472;52.170;20.884;2023-08-17T10:19:22;44.30;37.30
21275;DHT22;36472;52.170;20.884;2023-08-17T10:22:08;44.40;35.90
21275;DHT22;36472;52.170;20.884;2023-08-17T10:24:49;44.50;36.60
21275;DHT22;36472;52.170;20.884;2023-08-17T10:27:20;44.70;36.40
21275;DHT22;36472;52.170;20.884;2023-08-17T10:29:51;44.90;36.10
21275;DHT22;36472;52.170;20.884;2023-08-17T10:32:22;45.10;35.80
21275;DHT22;36472;52.170;20.884;2023-08-17T10:34:53;45.20;35.20
21275;DHT22;36472;52.170;20.884;2023-08-17T10:37:23;45.40;35.60
21275;DHT22;36472;52.170;20.884;2023-08-17T10:39:52;45.50;34.80
21275;DHT22;36472;52.170;20.884;2023-08-17T10:42:30;45.60;34.00
21275;DHT22;36472;52.170;20.884;2023-08-17T10:45:25;45.60;34.40
21275;DHT22;36472;52.170;20.884;2023-08-17T10:48:26;45.60;34.30
21275;DHT22;36472;52.170;20.884;2023-08-17T10:51:05;45.60;34.00
21275;DHT22;36472;52.170;20.884;2023-08-17T10:53:35;45.60;33.00
21275;DHT22;36472;52.170;20.884;2023-08-17T10:56:07;45.60;32.30
21275;DHT22;36472;52.170;20.884;2023-08-17T10:58:39;45.60;32.70
21275;DHT22;36472;52.170;20.884;2023-08-17T11:01:12;45.70;32.20
21275;DHT22;36472;52.170;20.884;2023-08-17T11:03:42;45.70;31.70
21275;DHT22;36472;52.170;20.884;2023-08-17T11:06:16;45.60;31.80
21275;DHT22;36472;52.170;20.884;2023-08-17T11:08:53;45.70;32.10
21275;DHT22;36472;52.170;20.884;2023-08-17T11:11:31;45.80;31.90
21275;DHT22;36472;52.170;20.884;2023-08-17T11:14:03;45.90;30.90
21275;DHT22;36472;52.170;20.884;2023-08-17T11:16:33;46.10;31.40
21275;DHT22;36472;52.170;20.884;2023-08-17T11:19:03;46.20;31.30
21275;DHT22;36472;52.170;20.884;2023-08-17T11:21:32;46.50;31.20
21275;DHT22;36472;52.170;20.884;2023-08-17T11:24:01;46.50;30.80
21275;DHT22;36472;52.170;20.884;2023-08-17T11:26:30;46.50;30.70
21275;DHT22;36472;52.170;20.884;2023-08-17T11:29:03;46.70;31.00
21275;DHT22;36472;52.170;20.884;2023-08-17T11:31:34;46.80;30.10
21275;DHT22;36472;52.170;20.884;2023-08-17T11:34:03;46.80;29.90
21275;DHT22;36472;52.170;20.884;2023-08-17T11:36:33;46.50;29.30
21275;DHT22;36472;52.170;20.884;2023-08-17T11:39:02;46.60;30.00
21275;DHT22;36472;52.170;20.884;2023-08-17T11:41:37;46.50;29.90
21275;DHT22;36472;52.170;20.884;2023-08-17T11:44:09;46.20;30.00
21275;DHT22;36472;52.170;20.884;2023-08-17T11:46:40;46.40;30.00
21275;DHT22;36472;52.170;20.884;2023-08-17T11:49:09;46.50;30.00
21275;DHT22;36472;52.170;20.884;2023-08-17T11:51:38;46.50;29.90
21275;DHT22;36472;52.170;20.884;2023-08-17T11:54:09;46.70;29.60
21275;DHT22;36472;52.170;20.884;2023-08-17T11:56:39;46.70;29.30
21275;DHT22;36472;52.170;20.884;2023-08-17T11:59:09;46.70;29.50
21275;DHT22;36472;52.170;20.884;2023-08-17T12:01:43;46.60;29.90
21275;DHT22;36472;52.170;20.884;2023-08-17T12:04:12;46.60;29.40
21275;DHT22;36472;52.170;20.884;2023-08-17T12:06:43;46.50;30.10
21275;DHT22;36472;52.170;20.884;2023-08-17T12:09:13;46.40;29.90
21275;DHT22;36472;52.170;20.884;2023-08-17T12:11:44;46.30;30.30
21275;DHT22;36472;52.170;20.884;2023-08-17T12:14:14;46.10;29.30
21275;DHT22;36472;52.170;20.884;2023-08-17T12:16:48;45.80;29.50
21275;DHT22;36472;52.170;20.884;2023-08-17T12:19:18;45.70;30.00
21275;DHT22;36472;52.170;20.884;2023-08-17T12:21:48;45.70;30.60
21275;DHT22;36472;52.170;20.884;2023-08-17T12:24:17;45.60;30.00
21275;DHT22;36472;52.170;20.884;2023-08-17T12:26:47;45.50;30.00
21275;DHT22;36472;52.170;20.884;2023-08-17T12:29:19;45.30;29.80
21275;DHT22;36472;52.170;20.884;2023-08-17T12:31:51;45.30;30.20
21275;DHT22;36472;52.170;20.884;2023-08-17T12:34:20;45.30;29.90
21275;DHT22;36472;52.170;20.884;2023-08-17T12:36:50;45.30;30.20
21275;DHT22;36472;52.170;20.884;2023-08-17T12:39:19;45.20;29.90
21275;DHT22;36472;52.170;20.884;2023-08-17T12:41:48;45.20;30.20
21275;DHT22;36472;52.170;20.884;2023-08-17T12:44:20;45.10;30.30
21275;DHT22;36472;52.170;20.884;2023-08-17T12:46:50;45.10;30.80
21275;DHT22;36472;52.170;20.884;2023-08-17T12:49:19;45.10;31.20
21275;DHT22;36472;52.170;20.884;2023-08-17T12:51:51;45.00;31.10
21275;DHT22;36472;52.170;20.884;2023-08-17T12:54:20;45.10;30.90
21275;DHT22;36472;52.170;20.884;2023-08-17T12:56:49;45.10;30.90
21275;DHT22;36472;52.170;20.884;2023-08-17T12:59:25;45.30;30.40
21275;DHT22;36472;52.170;20.884;2023-08-17T13:01:56;45.20;30.00
21275;DHT22;36472;52.170;20.884;2023-08-17T13:04:25;45.00;30.10
21275;DHT22;36472;52.170;20.884;2023-08-17T13:06:54;45.00;30.60
21275;DHT22;36472;52.170;20.884;2023-08-17T13:09:23;44.90;30.50
21275;DHT22;36472;52.170;20.884;2023-08-17T13:11:55;44.80;30.30
21275;DHT22;36472;52.170;20.884;2023-08-17T13:14:25;44.90;31.10
21275;DHT22;36472;52.170;20.884;2023-08-17T13:16:56;44.70;31.10
21275;DHT22;36472;52.170;20.884;2023-08-17T13:19:25;44.70;30.90
21275;DHT22;36472;52.170;20.884;2023-08-17T13:21:54;44.50;31.30
21275;DHT22;36472;52.170;20.884;2023-08-17T13:24:23;44.60;31.50
21275;DHT22;36472;52.170;20.884;2023-08-17T13:26:55;44.50;31.10
21275;DHT22;36472;52.170;20.884;2023-08-17T13:29:25;44.50;31.40
21275;DHT22;36472;52.170;20.884;2023-08-17T13:31:55;44.60;31.80
21275;DHT22;36472;52.170;20.884;2023-08-17T13:34:24;44.60;31.50
21275;DHT22;36472;52.170;20.884;2023-08-17T13:36:53;44.60;31.20
21275;DHT22;36472;52.170;20.884;2023-08-17T13:39:22;44.70;31.20
21275;DHT22;36472;52.170;20.884;2023-08-17T13:41:51;44.70;31.40
21275;DHT22;36472;52.170;20.884;2023-08-17T13:44:20;44.70;31.00
21275;DHT22;36472;52.170;20.884;2023-08-17T13:46:49;44.70;30.70
21275;DHT22;36472;52.170;20.884;2023-08-17T13:49:22;44.60;31.00
21275;DHT22;36472;52.170;20.884;2023-08-17T13:51:54;44.60;31.10
21275;DHT22;36472;52.170;20.884;2023-08-17T13:54:23;44.50;31.00
21275;DHT22;36472;52.170;20.884;2023-08-17T13:56:53;44.50;32.00
21275;DHT22;36472;52.170;20.884;2023-08-17T13:59:22;44.30;31.80
21275;DHT22;36472;52.170;20.884;2023-08-17T14:01:51;44.30;32.40
21275;DHT22;36472;52.170;20.884;2023-08-17T14:04:24;44.40;32.70
21275;DHT22;36472;52.170;20.884;2023-08-17T14:06:53;44.40;32.90
21275;DHT22;36472;52.170;20.884;2023-08-17T14:09:22;44.40;32.40
21275;DHT22;36472;52.170;20.884;2023-08-17T14:11:51;44.50;32.50
21275;DHT22;36472;52.170;20.884;2023-08-17T14:14:20;44.50;32.80
21275;DHT22;36472;52.170;20.884;2023-08-17T14:16:49;44.50;32.80
21275;DHT22;36472;52.170;20.884;2023-08-17T14:19:18;44.20;32.60
21275;DHT22;36472;52.170;20.884;2023-08-17T14:21:51;44.30;32.90
21275;DHT22;36472;52.170;20.884;2023-08-17T14:24:21;44.40;33.20
21275;DHT22;36472;52.170;20.884;2023-08-17T14:26:50;44.30;32.90
21275;DHT22;36472;52.170;20.884;2023-08-17T14:29:19;44.30;32.70
21275;DHT22;36472;52.170;20.884;2023-08-17T14:31:48;44.30;32.80
21275;DHT22;36472;52.170;20.884;2023-08-17T14:34:22;44.20;32.70
21275;DHT22;36472;52.170;20.884;2023-08-17T14:36:55;44.20;32.90
21275;DHT22;36472;52.170;20.884;2023-08-17T14:39:24;44.20;32.20
21275;DHT22;36472;52.170;20.884;2023-08-17T14:41:54;44.20;32.40
21275;DHT22;36472;52.170;20.884;2023-08-17T14:44:22;44.10;31.90
21275;DHT22;36472;52.170;20.884;2023-08-17T14:46:52;44.10;32.00
21275;DHT22;36472;52.170;20.884;2023-08-17T14:49:21;44.10;31.80
21275;DHT22;36472;52.170;20.884;2023-08-17T14:51:54;44.10;31.60
21275;DHT22;36472;52.170;20.884;2023-08-17T14:54:26;44.00;32.00
21275;DHT22;36472;52.170;20.884;2023-08-17T14:56:58;44.00;32.40
21275;DHT22;36472;52.170;20.884;2023-08-17T14:59:27;44.10;32.80
21275;DHT22;36472;52.170;20.884;2023-08-17T15:01:56;44.10;32.50
21275;DHT22;36472;52.170;20.884;2023-08-17T15:04:25;44.20;32.60
21275;DHT22;36472;52.170;20.884;2023-08-17T15:06:56;44.20;32.80
21275;DHT22;36472;52.170;20.884;2023-08-17T15:09:25;44.30;33.00
21275;DHT22;36472;52.170;20.884;2023-08-17T15:11:54;44.30;33.10
21275;DHT22;36472;52.170;20.884;2023-08-17T15:14:23;44.10;32.80
21275;DHT22;36472;52.170;20.884;2023-08-17T15:16:52;44.20;32.80
21275;DHT22;36472;52.170;20.884;2023-08-17T15:19:21;44.20;33.10
21275;DHT22;36472;52.170;20.884;2023-08-17T15:22:07;44.20;33.30
21275;DHT22;36472;52.170;20.884;2023-08-17T15:24:41;44.20;33.40
21275;DHT22;36472;52.170;20.884;2023-08-17T15:27:12;44.20;33.40
21275;DHT22;36472;52.170;20.884;2023-08-17T15:29:41;44.20;33.60
21275;DHT22;36472;52.170;20.884;2023-08-17T15:32:10;44.30;33.50
21275;DHT22;36472;52.170;20.884;2023-08-17T15:34:39;44.30;33.40
21275;DHT22;36472;52.170;20.884;2023-08-17T15:37:09;44.10;32.80
21275;DHT22;36472;52.170;20.884;2023-08-17T15:39:38;44.20;33.60
21275;DHT22;36472;52.170;20.884;2023-08-17T15:42:07;44.20;33.70
21275;DHT22;36472;52.170;20.884;2023-08-17T15:44:36;44.10;33.50
21275;DHT22;36472;52.170;20.884;2023-08-17T15:47:06;44.10;33.50
21275;DHT22;36472;52.170;20.884;2023-08-17T15:49:35;44.10;33.60